Senyomaru — JI3557 — position and weather

sailwx.info

Track history (hours):
 
Tides and Currents Weather Stations Pressure Air Temp Water Temp Dewpoint Dewpoint Depression Visibility Wind Speed Wind Dir Waves Ship Positions

Senyomaru

Last reported at 2014-Jul-29 16:30 UTC. Time now 2014-Jul-29 16:58 UTC.
Position N 35°29' E 139°49'.

Length 69 m; draft 4 m.

Type: Tanker. MMSI: 431300188.

Date/timePositionNaut miles runAvg speedWind from/ knotsBaromVisibWave heightAir tempDewpointWater temp
2014-Jul-29 16:30N 35°29' E 139°49'0 0.1
2014-Jul-29 15:33N 35°29' E 139°49'0 0.0
2014-Jul-29 14:33N 35°29' E 139°49'0 0.0
2014-Jul-29 13:33N 35°29' E 139°49'10 9.8
2014-Jul-29 12:33N 35°20' E 139°44'1010.4
2014-Jul-29 11:33N 35°09' E 139°45'1312.5
2014-Jul-29 10:33N 34°60' E 139°35'231 9.6
2014-Jul-28 10:33N 34°07' E 135°02'1210.9
2014-Jul-28 09:28N 34°19' E 135°04'1112.1
2014-Jul-28 08:33N 34°27' E 135°13'1211.7
2014-Jul-28 07:33N 34°33' E 135°25'1 0.8
2014-Jul-28 06:27N 34°33' E 135°26'0 0.0
2014-Jul-28 05:15N 34°33' E 135°26'0 0.0
2014-Jul-28 04:33N 34°33' E 135°26'0 0.0
2014-Jul-28 03:27N 34°33' E 135°26'0 0.0
2014-Jul-28 02:33N 34°33' E 135°26'0 0.0
2014-Jul-28 01:33N 34°33' E 135°26'0 0.0
2014-Jul-28 00:33N 34°33' E 135°26'0 0.0
2014-Jul-27 22:21N 34°33' E 135°26'3 0.8
2014-Jul-27 18:23N 34°33' E 135°22'0 0.0
2014-Jul-27 12:31N 34°33' E 135°22'9 9.4
2014-Jul-27 11:33N 34°28' E 135°13'1413.1
2014-Jul-27 10:31N 34°17' E 135°03'205 9.7
2014-Jul-26 13:18N 34°47' E 139°10'1910.6
2014-Jul-26 11:33N 34°59' E 139°27'1010.5
2014-Jul-26 10:33N 35°05' E 139°38'1110.9
2014-Jul-26 09:33N 35°13' E 139°46'1211.7
2014-Jul-26 08:33N 35°24' E 139°43'8 7.6
2014-Jul-26 07:32N 35°32' E 139°45'0 0.0
2014-Jul-26 06:32N 35°32' E 139°45'0 0.0
2014-Jul-26 05:32N 35°32' E 139°45'0 0.0
2014-Jul-26 04:28N 35°32' E 139°45'4 4.1
2014-Jul-26 03:33N 35°29' E 139°49'0 0.0
2014-Jul-26 02:26N 35°29' E 139°49'0 0.1
2014-Jul-26 01:32N 35°29' E 139°49'0 0.1
2014-Jul-26 00:29N 35°29' E 139°49'0 0.0
2014-Jul-25 23:23N 35°29' E 139°49'0 0.0
2014-Jul-25 22:29N 35°29' E 139°49'0 0.0
2014-Jul-25 21:32N 35°29' E 139°49'0 0.1
2014-Jul-25 20:32N 35°29' E 139°49'0 0.0
2014-Jul-25 19:32N 35°29' E 139°49'0 0.0
2014-Jul-25 18:32N 35°29' E 139°49'0 0.0
2014-Jul-25 17:32N 35°29' E 139°49'0 0.0
2014-Jul-25 16:32N 35°29' E 139°49'0 0.0
2014-Jul-25 15:32N 35°29' E 139°49'0 0.0
2014-Jul-25 14:29N 35°29' E 139°49'0 0.1
2014-Jul-25 13:29N 35°29' E 139°49'0 0.0
2014-Jul-25 12:32N 35°29' E 139°49'0 0.0
2014-Jul-25 11:32N 35°29' E 139°49'0 0.0
2014-Jul-25 10:29N 35°29' E 139°49'0 0.1
2014-Jul-25 09:29N 35°29' E 139°49'0 0.0
2014-Jul-25 08:32N 35°29' E 139°49'8 7.7
2014-Jul-25 07:33N 35°22' E 139°45'1111.2
2014-Jul-25 06:33N 35°11' E 139°47'1312.6
2014-Jul-25 05:33N 35°01' E 139°37'  
2014-Jul-22 11:09N 34°03' E 135°02'711.4
2014-Jul-22 10:32N 34°10' E 135°03'1110.9
2014-Jul-22 09:31N 34°21' E 135°06'1111.1
2014-Jul-22 08:33N 34°29' E 135°15'9 9.0
2014-Jul-22 07:31N 34°33' E 135°26'0 0.0
2014-Jul-22 06:26N 34°33' E 135°26'0 0.0
2014-Jul-22 05:05N 34°33' E 135°26'0 0.0
2014-Jul-22 04:05N 34°33' E 135°26'0 0.0
2014-Jul-22 03:29N 34°33' E 135°26'0 0.0
2014-Jul-22 02:05N 34°33' E 135°26'0 0.0
2014-Jul-22 01:29N 34°33' E 135°26'0 0.0
2014-Jul-22 00:17N 34°33' E 135°26'0 0.0
2014-Jul-21 23:29N 34°33' E 135°26'0 0.0
2014-Jul-21 22:29N 34°33' E 135°26'3 3.4
2014-Jul-21 21:30N 34°33' E 135°21'0 0.0
2014-Jul-21 20:30N 34°33' E 135°21'0 0.0
2014-Jul-21 20:12N 34°33' E 135°21'0 0.0
2014-Jul-21 19:30N 34°33' E 135°21'0 0.0
2014-Jul-21 18:30N 34°33' E 135°21'0 0.0
2014-Jul-21 17:30N 34°33' E 135°21'0 0.0
2014-Jul-21 16:30N 34°33' E 135°21'0 0.0
2014-Jul-21 15:06N 34°33' E 135°21'0 0.0
2014-Jul-21 14:06N 34°33' E 135°21'0 0.0
2014-Jul-21 13:24N 34°33' E 135°21'0 0.0
2014-Jul-21 12:30N 34°33' E 135°21'0 0.0
2014-Jul-21 11:30N 34°33' E 135°21'0 0.0
2014-Jul-21 10:12N 34°33' E 135°21'0 0.0
2014-Jul-21 09:30N 34°33' E 135°21'0 0.0
2014-Jul-21 08:24N 34°33' E 135°21'0 0.0
2014-Jul-21 07:30N 34°33' E 135°21'0 0.0
2014-Jul-21 06:30N 34°33' E 135°21'0 0.0
2014-Jul-21 05:12N 34°33' E 135°21'0 0.0
2014-Jul-21 04:30N 34°33' E 135°21'0 0.0
2014-Jul-21 03:24N 34°33' E 135°21'0 0.0
2014-Jul-20 18:18N 34°33' E 135°21'0 0.0
2014-Jul-20 17:30N 34°33' E 135°21'0 0.0
2014-Jul-20 16:30N 34°33' E 135°21'0 0.0
2014-Jul-20 15:12N 34°33' E 135°21'0 0.0
2014-Jul-20 14:30N 34°33' E 135°21'0 0.0
2014-Jul-20 13:30N 34°33' E 135°21'0 0.0
2014-Jul-20 12:30N 34°33' E 135°21'0 0.1
2014-Jul-20 08:32N 34°33' E 135°21'1212.1
2014-Jul-20 07:32N 34°25' E 135°10'1212.7
2014-Jul-20 06:33N 34°14' E 135°03'  
Track history (hours):
 
Tides and Currents Weather Stations Pressure Air Temp Water Temp Dewpoint Dewpoint Depression Visibility Wind Speed Wind Dir Waves Ship Positions

Senyomaru

Last reported at 2014-Jul-29 16:30 UTC. Time now 2014-Jul-29 16:58 UTC.
Position N 35°29' E 139°49'.

Length 69 m; draft 4 m.

Type: Tanker. MMSI: 431300188.

Date/timePositionNaut miles runAvg speedWind from/ knotsBaromVisibWave heightAir tempDewpointWater temp
2014-Jul-29 16:30N 35°29' E 139°49'0 0.1
2014-Jul-29 15:33N 35°29' E 139°49'0 0.0
2014-Jul-29 14:33N 35°29' E 139°49'0 0.0
2014-Jul-29 13:33N 35°29' E 139°49'10 9.8
2014-Jul-29 12:33N 35°20' E 139°44'1010.4
2014-Jul-29 11:33N 35°09' E 139°45'1312.5
2014-Jul-29 10:33N 34°60' E 139°35'231 9.6
2014-Jul-28 10:33N 34°07' E 135°02'1210.9
2014-Jul-28 09:28N 34°19' E 135°04'1112.1
2014-Jul-28 08:33N 34°27' E 135°13'1211.7
2014-Jul-28 07:33N 34°33' E 135°25'1 0.8
2014-Jul-28 06:27N 34°33' E 135°26'0 0.0
2014-Jul-28 05:15N 34°33' E 135°26'0 0.0
2014-Jul-28 04:33N 34°33' E 135°26'0 0.0
2014-Jul-28 03:27N 34°33' E 135°26'0 0.0
2014-Jul-28 02:33N 34°33' E 135°26'0 0.0
2014-Jul-28 01:33N 34°33' E 135°26'0 0.0
2014-Jul-28 00:33N 34°33' E 135°26'0 0.0
2014-Jul-27 22:21N 34°33' E 135°26'3 0.8
2014-Jul-27 18:23N 34°33' E 135°22'0 0.0
2014-Jul-27 12:31N 34°33' E 135°22'9 9.4
2014-Jul-27 11:33N 34°28' E 135°13'1413.1
2014-Jul-27 10:31N 34°17' E 135°03'205 9.7
2014-Jul-26 13:18N 34°47' E 139°10'1910.6
2014-Jul-26 11:33N 34°59' E 139°27'1010.5
2014-Jul-26 10:33N 35°05' E 139°38'1110.9
2014-Jul-26 09:33N 35°13' E 139°46'1211.7
2014-Jul-26 08:33N 35°24' E 139°43'8 7.6
2014-Jul-26 07:32N 35°32' E 139°45'0 0.0
2014-Jul-26 06:32N 35°32' E 139°45'0 0.0
2014-Jul-26 05:32N 35°32' E 139°45'0 0.0
2014-Jul-26 04:28N 35°32' E 139°45'4 4.1
2014-Jul-26 03:33N 35°29' E 139°49'0 0.0
2014-Jul-26 02:26N 35°29' E 139°49'0 0.1
2014-Jul-26 01:32N 35°29' E 139°49'0 0.1
2014-Jul-26 00:29N 35°29' E 139°49'0 0.0
2014-Jul-25 23:23N 35°29' E 139°49'0 0.0
2014-Jul-25 22:29N 35°29' E 139°49'0 0.0
2014-Jul-25 21:32N 35°29' E 139°49'0 0.1
2014-Jul-25 20:32N 35°29' E 139°49'0 0.0
2014-Jul-25 19:32N 35°29' E 139°49'0 0.0
2014-Jul-25 18:32N 35°29' E 139°49'0 0.0
2014-Jul-25 17:32N 35°29' E 139°49'0 0.0
2014-Jul-25 16:32N 35°29' E 139°49'0 0.0
2014-Jul-25 15:32N 35°29' E 139°49'0 0.0
2014-Jul-25 14:29N 35°29' E 139°49'0 0.1
2014-Jul-25 13:29N 35°29' E 139°49'0 0.0
2014-Jul-25 12:32N 35°29' E 139°49'0 0.0
2014-Jul-25 11:32N 35°29' E 139°49'0 0.0
2014-Jul-25 10:29N 35°29' E 139°49'0 0.1
2014-Jul-25 09:29N 35°29' E 139°49'0 0.0
2014-Jul-25 08:32N 35°29' E 139°49'8 7.7
2014-Jul-25 07:33N 35°22' E 139°45'1111.2
2014-Jul-25 06:33N 35°11' E 139°47'1312.6
2014-Jul-25 05:33N 35°01' E 139°37'  
2014-Jul-22 11:09N 34°03' E 135°02'711.4
2014-Jul-22 10:32N 34°10' E 135°03'1110.9
2014-Jul-22 09:31N 34°21' E 135°06'1111.1
2014-Jul-22 08:33N 34°29' E 135°15'9 9.0
2014-Jul-22 07:31N 34°33' E 135°26'0 0.0
2014-Jul-22 06:26N 34°33' E 135°26'0 0.0
2014-Jul-22 05:05N 34°33' E 135°26'0 0.0
2014-Jul-22 04:05N 34°33' E 135°26'0 0.0
2014-Jul-22 03:29N 34°33' E 135°26'0 0.0
2014-Jul-22 02:05N 34°33' E 135°26'0 0.0
2014-Jul-22 01:29N 34°33' E 135°26'0 0.0
2014-Jul-22 00:17N 34°33' E 135°26'0 0.0
2014-Jul-21 23:29N 34°33' E 135°26'0 0.0
2014-Jul-21 22:29N 34°33' E 135°26'3 3.4
2014-Jul-21 21:30N 34°33' E 135°21'0 0.0
2014-Jul-21 20:30N 34°33' E 135°21'0 0.0
2014-Jul-21 20:12N 34°33' E 135°21'0 0.0
2014-Jul-21 19:30N 34°33' E 135°21'0 0.0
2014-Jul-21 18:30N 34°33' E 135°21'0 0.0
2014-Jul-21 17:30N 34°33' E 135°21'0 0.0
2014-Jul-21 16:30N 34°33' E 135°21'0 0.0
2014-Jul-21 15:06N 34°33' E 135°21'0 0.0
2014-Jul-21 14:06N 34°33' E 135°21'0 0.0
2014-Jul-21 13:24N 34°33' E 135°21'0 0.0
2014-Jul-21 12:30N 34°33' E 135°21'0 0.0
2014-Jul-21 11:30N 34°33' E 135°21'0 0.0
2014-Jul-21 10:12N 34°33' E 135°21'0 0.0
2014-Jul-21 09:30N 34°33' E 135°21'0 0.0
2014-Jul-21 08:24N 34°33' E 135°21'0 0.0
2014-Jul-21 07:30N 34°33' E 135°21'0 0.0
2014-Jul-21 06:30N 34°33' E 135°21'0 0.0
2014-Jul-21 05:12N 34°33' E 135°21'0 0.0
2014-Jul-21 04:30N 34°33' E 135°21'0 0.0
2014-Jul-21 03:24N 34°33' E 135°21'0 0.0
2014-Jul-20 18:18N 34°33' E 135°21'0 0.0
2014-Jul-20 17:30N 34°33' E 135°21'0 0.0
2014-Jul-20 16:30N 34°33' E 135°21'0 0.0
2014-Jul-20 15:12N 34°33' E 135°21'0 0.0
2014-Jul-20 14:30N 34°33' E 135°21'0 0.0
2014-Jul-20 13:30N 34°33' E 135°21'0 0.0
2014-Jul-20 12:30N 34°33' E 135°21'0 0.1
2014-Jul-20 08:32N 34°33' E 135°21'1212.1
2014-Jul-20 07:32N 34°25' E 135°10'1212.7
2014-Jul-20 06:33N 34°14' E 135°03'  

Dump ship's entire track history